sensor_id;sensor_type;location;lat;lon;timestamp;P1;durP1;ratioP1;P2;durP2;ratioP2
75427;SDS011;64008;55.612;37.698;2023-03-31T00:01:34;3.17;;;1.23;;
75427;SDS011;64008;55.612;37.698;2023-03-31T00:04:06;4.68;;;1.30;;
75427;SDS011;64008;55.612;37.698;2023-03-31T00:06:34;2.97;;;1.15;;
75427;SDS011;64008;55.612;37.698;2023-03-31T00:09:07;11.57;;;2.00;;
75427;SDS011;64008;55.612;37.698;2023-03-31T00:11:34;3.70;;;1.20;;
75427;SDS011;64008;55.612;37.698;2023-03-31T00:14:00;4.93;;;1.25;;
75427;SDS011;64008;55.612;37.698;2023-03-31T00:16:26;3.38;;;1.20;;
75427;SDS011;64008;55.612;37.698;2023-03-31T00:18:52;2.92;;;1.20;;
75427;SDS011;64008;55.612;37.698;2023-03-31T00:21:21;3.30;;;1.30;;
75427;SDS011;64008;55.612;37.698;2023-03-31T00:23:56;2.85;;;1.13;;
75427;SDS011;64008;55.612;37.698;2023-03-31T00:26:24;4.50;;;1.58;;
75427;SDS011;64008;55.612;37.698;2023-03-31T00:28:52;2.72;;;0.90;;
75427;SDS011;64008;55.612;37.698;2023-03-31T00:31:18;2.83;;;1.17;;
75427;SDS011;64008;55.612;37.698;2023-03-31T00:36:10;2.92;;;1.08;;
75427;SDS011;64008;55.612;37.698;2023-03-31T00:38:35;3.70;;;1.52;;
75427;SDS011;64008;55.612;37.698;2023-03-31T00:41:01;4.35;;;1.48;;
75427;SDS011;64008;55.612;37.698;2023-03-31T00:46:05;3.10;;;1.30;;
75427;SDS011;64008;55.612;37.698;2023-03-31T00:48:46;4.43;;;1.13;;
75427;SDS011;64008;55.612;37.698;2023-03-31T00:51:18;3.38;;;1.30;;
75427;SDS011;64008;55.612;37.698;2023-03-31T00:53:47;3.28;;;1.20;;
75427;SDS011;64008;55.612;37.698;2023-03-31T00:56:19;4.35;;;1.67;;
75427;SDS011;64008;55.612;37.698;2023-03-31T00:58:45;3.00;;;1.10;;
75427;SDS011;64008;55.612;37.698;2023-03-31T01:01:17;3.70;;;1.17;;
75427;SDS011;64008;55.612;37.698;2023-03-31T01:03:44;3.75;;;1.20;;
75427;SDS011;64008;55.612;37.698;2023-03-31T01:06:12;3.05;;;1.23;;
75427;SDS011;64008;55.612;37.698;2023-03-31T01:08:41;3.05;;;1.15;;
75427;SDS011;64008;55.612;37.698;2023-03-31T01:11:09;3.22;;;1.10;;
75427;SDS011;64008;55.612;37.698;2023-03-31T01:13:37;3.53;;;1.23;;
75427;SDS011;64008;55.612;37.698;2023-03-31T01:16:04;3.55;;;1.17;;
75427;SDS011;64008;55.612;37.698;2023-03-31T01:18:29;2.65;;;1.02;;
75427;SDS011;64008;55.612;37.698;2023-03-31T01:26:23;2.67;;;0.85;;
75427;SDS011;64008;55.612;37.698;2023-03-31T01:31:43;2.88;;;1.10;;
75427;SDS011;64008;55.612;37.698;2023-03-31T01:40:02;3.75;;;1.00;;
75427;SDS011;64008;55.612;37.698;2023-03-31T01:45:59;3.20;;;1.10;;
75427;SDS011;64008;55.612;37.698;2023-03-31T01:51:32;2.70;;;1.00;;
75427;SDS011;64008;55.612;37.698;2023-03-31T01:54:17;1.80;;;0.75;;
75427;SDS011;64008;55.612;37.698;2023-03-31T01:59:22;2.67;;;0.98;;
75427;SDS011;64008;55.612;37.698;2023-03-31T02:01:52;2.58;;;0.90;;
75427;SDS011;64008;55.612;37.698;2023-03-31T02:07:34;2.53;;;1.05;;
75427;SDS011;64008;55.612;37.698;2023-03-31T02:10:10;2.10;;;0.80;;
75427;SDS011;64008;55.612;37.698;2023-03-31T02:12:37;3.15;;;0.90;;
75427;SDS011;64008;55.612;37.698;2023-03-31T02:15:05;2.50;;;0.93;;
75427;SDS011;64008;55.612;37.698;2023-03-31T02:17:34;2.58;;;0.93;;
75427;SDS011;64008;55.612;37.698;2023-03-31T02:20:05;2.35;;;0.88;;
75427;SDS011;64008;55.612;37.698;2023-03-31T02:22:37;2.67;;;0.93;;
75427;SDS011;64008;55.612;37.698;2023-03-31T02:25:07;4.97;;;0.90;;
75427;SDS011;64008;55.612;37.698;2023-03-31T02:27:38;2.05;;;0.90;;
75427;SDS011;64008;55.612;37.698;2023-03-31T02:30:07;4.95;;;0.98;;
75427;SDS011;64008;55.612;37.698;2023-03-31T02:32:38;2.28;;;0.93;;
75427;SDS011;64008;55.612;37.698;2023-03-31T02:35:05;4.28;;;0.82;;
75427;SDS011;64008;55.612;37.698;2023-03-31T02:37:34;5.15;;;1.10;;
75427;SDS011;64008;55.612;37.698;2023-03-31T02:40:02;3.20;;;1.10;;
75427;SDS011;64008;55.612;37.698;2023-03-31T02:42:35;2.83;;;1.00;;
75427;SDS011;64008;55.612;37.698;2023-03-31T02:45:06;3.22;;;0.88;;
75427;SDS011;64008;55.612;37.698;2023-03-31T02:48:06;2.40;;;0.93;;
75427;SDS011;64008;55.612;37.698;2023-03-31T02:59:23;2.22;;;0.82;;
75427;SDS011;64008;55.612;37.698;2023-03-31T03:08:13;2.53;;;0.85;;
75427;SDS011;64008;55.612;37.698;2023-03-31T03:13:14;3.10;;;0.90;;
75427;SDS011;64008;55.612;37.698;2023-03-31T03:15:54;3.28;;;1.00;;
75427;SDS011;64008;55.612;37.698;2023-03-31T03:18:25;2.80;;;0.80;;
75427;SDS011;64008;55.612;37.698;2023-03-31T03:20:50;3.22;;;0.82;;
75427;SDS011;64008;55.612;37.698;2023-03-31T03:23:16;2.05;;;0.88;;
75427;SDS011;64008;55.612;37.698;2023-03-31T03:25:42;3.90;;;1.27;;
75427;SDS011;64008;55.612;37.698;2023-03-31T03:28:10;2.95;;;1.02;;
75427;SDS011;64008;55.612;37.698;2023-03-31T03:30:35;2.67;;;1.00;;
75427;SDS011;64008;55.612;37.698;2023-03-31T03:33:01;3.67;;;1.02;;
75427;SDS011;64008;55.612;37.698;2023-03-31T03:35:30;2.60;;;0.90;;
75427;SDS011;64008;55.612;37.698;2023-03-31T03:37:56;2.58;;;1.00;;
75427;SDS011;64008;55.612;37.698;2023-03-31T03:40:21;3.15;;;0.90;;
75427;SDS011;64008;55.612;37.698;2023-03-31T03:42:47;3.17;;;0.93;;
75427;SDS011;64008;55.612;37.698;2023-03-31T03:45:12;2.25;;;0.80;;
75427;SDS011;64008;55.612;37.698;2023-03-31T03:47:38;2.47;;;0.95;;
75427;SDS011;64008;55.612;37.698;2023-03-31T03:50:03;2.33;;;1.00;;
75427;SDS011;64008;55.612;37.698;2023-03-31T03:52:29;3.22;;;0.63;;
75427;SDS011;64008;55.612;37.698;2023-03-31T03:54:55;2.70;;;1.02;;
75427;SDS011;64008;55.612;37.698;2023-03-31T03:57:20;1.63;;;0.65;;
75427;SDS011;64008;55.612;37.698;2023-03-31T03:59:46;2.00;;;0.90;;
75427;SDS011;64008;55.612;37.698;2023-03-31T04:02:11;2.63;;;0.98;;
75427;SDS011;64008;55.612;37.698;2023-03-31T04:04:37;3.15;;;0.93;;
75427;SDS011;64008;55.612;37.698;2023-03-31T04:07:02;2.67;;;0.90;;
75427;SDS011;64008;55.612;37.698;2023-03-31T04:09:28;11.88;;;0.88;;
75427;SDS011;64008;55.612;37.698;2023-03-31T04:11:54;2.40;;;0.90;;
75427;SDS011;64008;55.612;37.698;2023-03-31T04:14:20;3.53;;;0.90;;
75427;SDS011;64008;55.612;37.698;2023-03-31T04:16:46;2.72;;;0.88;;
75427;SDS011;64008;55.612;37.698;2023-03-31T04:19:12;4.05;;;0.85;;
75427;SDS011;64008;55.612;37.698;2023-03-31T04:21:41;4.90;;;0.85;;
75427;SDS011;64008;55.612;37.698;2023-03-31T04:24:09;3.90;;;0.88;;
75427;SDS011;64008;55.612;37.698;2023-03-31T04:26:39;4.93;;;0.90;;
75427;SDS011;64008;55.612;37.698;2023-03-31T04:29:09;2.72;;;0.88;;
75427;SDS011;64008;55.612;37.698;2023-03-31T04:31:36;2.47;;;0.90;;
75427;SDS011;64008;55.612;37.698;2023-03-31T04:34:09;2.17;;;0.77;;
75427;SDS011;64008;55.612;37.698;2023-03-31T04:36:39;3.08;;;1.00;;
75427;SDS011;64008;55.612;37.698;2023-03-31T04:39:11;2.72;;;0.80;;
75427;SDS011;64008;55.612;37.698;2023-03-31T04:41:37;2.75;;;0.80;;
75427;SDS011;64008;55.612;37.698;2023-03-31T04:44:02;2.55;;;0.90;;
75427;SDS011;64008;55.612;37.698;2023-03-31T04:46:28;2.35;;;0.90;;
75427;SDS011;64008;55.612;37.698;2023-03-31T04:48:54;2.20;;;0.80;;
75427;SDS011;64008;55.612;37.698;2023-03-31T04:51:19;3.60;;;1.00;;
75427;SDS011;64008;55.612;37.698;2023-03-31T04:53:45;2.63;;;0.80;;
75427;SDS011;64008;55.612;37.698;2023-03-31T04:56:11;2.72;;;0.70;;
75427;SDS011;64008;55.612;37.698;2023-03-31T04:58:37;2.08;;;0.70;;
75427;SDS011;64008;55.612;37.698;2023-03-31T05:01:03;3.30;;;0.80;;
75427;SDS011;64008;55.612;37.698;2023-03-31T05:03:32;8.60;;;0.98;;
75427;SDS011;64008;55.612;37.698;2023-03-31T05:05:58;4.00;;;1.00;;
75427;SDS011;64008;55.612;37.698;2023-03-31T05:08:24;4.97;;;0.80;;
75427;SDS011;64008;55.612;37.698;2023-03-31T05:10:51;3.20;;;0.90;;
75427;SDS011;64008;55.612;37.698;2023-03-31T05:13:16;3.15;;;1.08;;
75427;SDS011;64008;55.612;37.698;2023-03-31T05:15:42;2.72;;;0.90;;
75427;SDS011;64008;55.612;37.698;2023-03-31T05:18:09;2.83;;;0.93;;
75427;SDS011;64008;55.612;37.698;2023-03-31T05:20:35;4.80;;;1.00;;
75427;SDS011;64008;55.612;37.698;2023-03-31T05:23:01;7.45;;;0.88;;
75427;SDS011;64008;55.612;37.698;2023-03-31T05:25:26;3.13;;;0.77;;
75427;SDS011;64008;55.612;37.698;2023-03-31T05:27:57;2.70;;;0.90;;
75427;SDS011;64008;55.612;37.698;2023-03-31T05:30:24;3.40;;;0.95;;
75427;SDS011;64008;55.612;37.698;2023-03-31T05:32:53;2.88;;;0.80;;
75427;SDS011;64008;55.612;37.698;2023-03-31T05:35:20;3.13;;;0.80;;
75427;SDS011;64008;55.612;37.698;2023-03-31T05:37:45;10.63;;;1.05;;
75427;SDS011;64008;55.612;37.698;2023-03-31T05:40:11;4.43;;;0.90;;
75427;SDS011;64008;55.612;37.698;2023-03-31T05:42:37;3.55;;;0.80;;
75427;SDS011;64008;55.612;37.698;2023-03-31T05:45:03;3.65;;;0.85;;
75427;SDS011;64008;55.612;37.698;2023-03-31T05:47:29;1.95;;;0.63;;
75427;SDS011;64008;55.612;37.698;2023-03-31T05:49:54;3.97;;;1.00;;
75427;SDS011;64008;55.612;37.698;2023-03-31T05:52:20;1.85;;;0.70;;
75427;SDS011;64008;55.612;37.698;2023-03-31T05:54:45;1.95;;;0.73;;
75427;SDS011;64008;55.612;37.698;2023-03-31T05:57:11;2.55;;;0.77;;
75427;SDS011;64008;55.612;37.698;2023-03-31T05:59:37;4.32;;;0.70;;
75427;SDS011;64008;55.612;37.698;2023-03-31T06:02:04;2.35;;;0.80;;
75427;SDS011;64008;55.612;37.698;2023-03-31T06:04:30;2.55;;;0.70;;
75427;SDS011;64008;55.612;37.698;2023-03-31T06:06:56;2.88;;;0.80;;
75427;SDS011;64008;55.612;37.698;2023-03-31T06:09:23;2.22;;;0.75;;
75427;SDS011;64008;55.612;37.698;2023-03-31T06:11:49;3.63;;;0.95;;
75427;SDS011;64008;55.612;37.698;2023-03-31T06:14:14;2.10;;;0.90;;
75427;SDS011;64008;55.612;37.698;2023-03-31T06:16:40;2.70;;;0.75;;
75427;SDS011;64008;55.612;37.698;2023-03-31T06:19:06;3.45;;;1.13;;
75427;SDS011;64008;55.612;37.698;2023-03-31T06:21:32;3.80;;;1.00;;
75427;SDS011;64008;55.612;37.698;2023-03-31T06:23:58;3.30;;;1.00;;
75427;SDS011;64008;55.612;37.698;2023-03-31T06:26:24;4.28;;;1.00;;
75427;SDS011;64008;55.612;37.698;2023-03-31T06:28:51;2.95;;;0.88;;
75427;SDS011;64008;55.612;37.698;2023-03-31T06:31:21;3.55;;;0.90;;
75427;SDS011;64008;55.612;37.698;2023-03-31T06:33:48;3.53;;;1.05;;
75427;SDS011;64008;55.612;37.698;2023-03-31T06:36:15;6.53;;;1.40;;
75427;SDS011;64008;55.612;37.698;2023-03-31T06:38:42;3.95;;;1.60;;
75427;SDS011;64008;55.612;37.698;2023-03-31T06:41:08;3.58;;;1.35;;
75427;SDS011;64008;55.612;37.698;2023-03-31T06:43:36;2.38;;;1.15;;
75427;SDS011;64008;55.612;37.698;2023-03-31T06:46:02;7.72;;;1.45;;
75427;SDS011;64008;55.612;37.698;2023-03-31T06:48:28;4.35;;;1.13;;
75427;SDS011;64008;55.612;37.698;2023-03-31T06:50:54;4.15;;;1.27;;
75427;SDS011;64008;55.612;37.698;2023-03-31T06:53:20;7.32;;;1.25;;
75427;SDS011;64008;55.612;37.698;2023-03-31T06:55:46;6.72;;;1.20;;
75427;SDS011;64008;55.612;37.698;2023-03-31T06:58:11;3.78;;;1.30;;
75427;SDS011;64008;55.612;37.698;2023-03-31T07:00:37;5.60;;;1.30;;
75427;SDS011;64008;55.612;37.698;2023-03-31T07:03:03;2.80;;;0.95;;
75427;SDS011;64008;55.612;37.698;2023-03-31T07:05:29;6.55;;;1.48;;
75427;SDS011;64008;55.612;37.698;2023-03-31T07:07:55;3.08;;;1.08;;
75427;SDS011;64008;55.612;37.698;2023-03-31T07:10:22;3.22;;;1.00;;
75427;SDS011;64008;55.612;37.698;2023-03-31T07:12:50;4.13;;;1.00;;
75427;SDS011;64008;55.612;37.698;2023-03-31T07:15:16;3.90;;;1.45;;
75427;SDS011;64008;55.612;37.698;2023-03-31T07:17:41;3.80;;;1.60;;
75427;SDS011;64008;55.612;37.698;2023-03-31T07:20:08;3.88;;;1.50;;
75427;SDS011;64008;55.612;37.698;2023-03-31T07:22:41;4.53;;;1.58;;
75427;SDS011;64008;55.612;37.698;2023-03-31T07:27:34;6.18;;;1.10;;
75427;SDS011;64008;55.612;37.698;2023-03-31T07:30:00;4.00;;;1.40;;
75427;SDS011;64008;55.612;37.698;2023-03-31T07:32:26;5.15;;;1.17;;
75427;SDS011;64008;55.612;37.698;2023-03-31T07:34:52;3.55;;;1.30;;
75427;SDS011;64008;55.612;37.698;2023-03-31T07:37:17;4.35;;;1.40;;
75427;SDS011;64008;55.612;37.698;2023-03-31T07:39:43;4.70;;;1.20;;
75427;SDS011;64008;55.612;37.698;2023-03-31T07:42:08;4.72;;;1.48;;
75427;SDS011;64008;55.612;37.698;2023-03-31T07:44:34;6.07;;;1.63;;
75427;SDS011;64008;55.612;37.698;2023-03-31T07:47:01;5.55;;;1.50;;
75427;SDS011;64008;55.612;37.698;2023-03-31T07:49:30;4.82;;;1.50;;
75427;SDS011;64008;55.612;37.698;2023-03-31T07:51:57;4.18;;;1.27;;
75427;SDS011;64008;55.612;37.698;2023-03-31T07:54:23;3.97;;;1.20;;
75427;SDS011;64008;55.612;37.698;2023-03-31T07:56:48;6.88;;;2.00;;
75427;SDS011;64008;55.612;37.698;2023-03-31T07:59:14;3.15;;;1.35;;
75427;SDS011;64008;55.612;37.698;2023-03-31T08:01:40;4.30;;;1.25;;
75427;SDS011;64008;55.612;37.698;2023-03-31T08:04:05;7.20;;;1.52;;
75427;SDS011;64008;55.612;37.698;2023-03-31T08:06:31;3.50;;;1.30;;
75427;SDS011;64008;55.612;37.698;2023-03-31T08:08:56;4.40;;;1.23;;
75427;SDS011;64008;55.612;37.698;2023-03-31T08:11:22;3.92;;;1.60;;
75427;SDS011;64008;55.612;37.698;2023-03-31T08:13:48;4.55;;;1.45;;
75427;SDS011;64008;55.612;37.698;2023-03-31T08:16:14;6.72;;;1.73;;
75427;SDS011;64008;55.612;37.698;2023-03-31T08:18:40;4.82;;;1.65;;
75427;SDS011;64008;55.612;37.698;2023-03-31T08:21:05;6.85;;;1.88;;
75427;SDS011;64008;55.612;37.698;2023-03-31T08:23:31;4.10;;;1.50;;
75427;SDS011;64008;55.612;37.698;2023-03-31T08:26:10;4.00;;;1.75;;
75427;SDS011;64008;55.612;37.698;2023-03-31T08:28:37;4.10;;;1.73;;
75427;SDS011;64008;55.612;37.698;2023-03-31T08:31:04;4.75;;;1.48;;
75427;SDS011;64008;55.612;37.698;2023-03-31T08:33:30;3.80;;;1.42;;
75427;SDS011;64008;55.612;37.698;2023-03-31T08:36:04;5.32;;;1.88;;
75427;SDS011;64008;55.612;37.698;2023-03-31T08:38:33;7.85;;;1.67;;
75427;SDS011;64008;55.612;37.698;2023-03-31T08:41:01;6.30;;;1.80;;
75427;SDS011;64008;55.612;37.698;2023-03-31T08:45:57;4.97;;;1.90;;
75427;SDS011;64008;55.612;37.698;2023-03-31T08:48:33;4.38;;;1.95;;
75427;SDS011;64008;55.612;37.698;2023-03-31T08:51:20;3.70;;;1.50;;
75427;SDS011;64008;55.612;37.698;2023-03-31T08:53:54;4.22;;;1.80;;
75427;SDS011;64008;55.612;37.698;2023-03-31T08:58:52;5.32;;;1.77;;
75427;SDS011;64008;55.612;37.698;2023-03-31T09:04:16;5.88;;;1.70;;
75427;SDS011;64008;55.612;37.698;2023-03-31T09:12:21;5.05;;;2.03;;
75427;SDS011;64008;55.612;37.698;2023-03-31T09:15:00;4.70;;;1.75;;
75427;SDS011;64008;55.612;37.698;2023-03-31T09:17:39;4.00;;;1.60;;
75427;SDS011;64008;55.612;37.698;2023-03-31T09:20:20;4.55;;;1.67;;
75427;SDS011;64008;55.612;37.698;2023-03-31T09:22:59;3.72;;;1.80;;
75427;SDS011;64008;55.612;37.698;2023-03-31T09:25:30;8.07;;;1.80;;
75427;SDS011;64008;55.612;37.698;2023-03-31T09:28:00;4.30;;;1.45;;
75427;SDS011;64008;55.612;37.698;2023-03-31T09:30:29;4.40;;;1.88;;
75427;SDS011;64008;55.612;37.698;2023-03-31T09:35:58;5.60;;;2.10;;
75427;SDS011;64008;55.612;37.698;2023-03-31T09:38:25;4.10;;;1.70;;
75427;SDS011;64008;55.612;37.698;2023-03-31T09:40:56;4.10;;;1.80;;
75427;SDS011;64008;55.612;37.698;2023-03-31T09:43:23;4.22;;;1.70;;
75427;SDS011;64008;55.612;37.698;2023-03-31T09:45:51;6.30;;;1.95;;
75427;SDS011;64008;55.612;37.698;2023-03-31T09:51:17;5.28;;;1.83;;
75427;SDS011;64008;55.612;37.698;2023-03-31T09:53:44;4.93;;;1.90;;
75427;SDS011;64008;55.612;37.698;2023-03-31T09:58:55;5.80;;;1.80;;
75427;SDS011;64008;55.612;37.698;2023-03-31T10:01:26;6.45;;;1.83;;
75427;SDS011;64008;55.612;37.698;2023-03-31T10:03:53;5.03;;;2.00;;
75427;SDS011;64008;55.612;37.698;2023-03-31T10:06:20;7.03;;;1.90;;
75427;SDS011;64008;55.612;37.698;2023-03-31T10:08:53;4.50;;;1.63;;
75427;SDS011;64008;55.612;37.698;2023-03-31T10:11:22;5.32;;;2.00;;
75427;SDS011;64008;55.612;37.698;2023-03-31T10:13:58;5.72;;;1.90;;
75427;SDS011;64008;55.612;37.698;2023-03-31T10:19:13;5.68;;;1.70;;
75427;SDS011;64008;55.612;37.698;2023-03-31T10:21:48;4.22;;;1.67;;
75427;SDS011;64008;55.612;37.698;2023-03-31T10:24:20;5.07;;;1.65;;
75427;SDS011;64008;55.612;37.698;2023-03-31T10:26:47;4.13;;;1.80;;
75427;SDS011;64008;55.612;37.698;2023-03-31T10:29:17;5.20;;;2.00;;
75427;SDS011;64008;55.612;37.698;2023-03-31T10:31:49;5.80;;;1.77;;
75427;SDS011;64008;55.612;37.698;2023-03-31T10:34:16;4.15;;;1.80;;
75427;SDS011;64008;55.612;37.698;2023-03-31T10:36:46;6.60;;;2.08;;
75427;SDS011;64008;55.612;37.698;2023-03-31T10:39:14;4.70;;;1.90;;
75427;SDS011;64008;55.612;37.698;2023-03-31T10:41:41;4.22;;;1.73;;
75427;SDS011;64008;55.612;37.698;2023-03-31T10:44:10;4.72;;;1.65;;
75427;SDS011;64008;55.612;37.698;2023-03-31T10:46:55;5.57;;;1.90;;
75427;SDS011;64008;55.612;37.698;2023-03-31T10:49:39;3.85;;;1.60;;
75427;SDS011;64008;55.612;37.698;2023-03-31T10:52:20;4.53;;;1.67;;
75427;SDS011;64008;55.612;37.698;2023-03-31T10:55:10;5.32;;;1.70;;
75427;SDS011;64008;55.612;37.698;2023-03-31T10:57:54;4.65;;;1.60;;
75427;SDS011;64008;55.612;37.698;2023-03-31T11:03:07;3.50;;;1.60;;
75427;SDS011;64008;55.612;37.698;2023-03-31T11:09:30;3.47;;;1.45;;
75427;SDS011;64008;55.612;37.698;2023-03-31T11:12:03;3.67;;;1.63;;
75427;SDS011;64008;55.612;37.698;2023-03-31T11:20:43;3.47;;;1.48;;
75427;SDS011;64008;55.612;37.698;2023-03-31T11:23:24;4.95;;;1.63;;
75427;SDS011;64008;55.612;37.698;2023-03-31T11:25:58;4.82;;;1.70;;
75427;SDS011;64008;55.612;37.698;2023-03-31T11:31:35;5.50;;;1.50;;
75427;SDS011;64008;55.612;37.698;2023-03-31T11:37:26;5.15;;;1.63;;
75427;SDS011;64008;55.612;37.698;2023-03-31T11:42:33;4.65;;;1.48;;
75427;SDS011;64008;55.612;37.698;2023-03-31T11:45:23;4.72;;;1.83;;
75427;SDS011;64008;55.612;37.698;2023-03-31T11:47:53;4.85;;;1.90;;
75427;SDS011;64008;55.612;37.698;2023-03-31T11:50:26;4.57;;;1.90;;
75427;SDS011;64008;55.612;37.698;2023-03-31T11:52:59;3.90;;;1.73;;
75427;SDS011;64008;55.612;37.698;2023-03-31T11:55:29;4.63;;;1.60;;
75427;SDS011;64008;55.612;37.698;2023-03-31T11:58:39;5.38;;;1.85;;
75427;SDS011;64008;55.612;37.698;2023-03-31T12:00:59;4.25;;;1.52;;
75427;SDS011;64008;55.612;37.698;2023-03-31T12:06:13;4.07;;;1.55;;
75427;SDS011;64008;55.612;37.698;2023-03-31T12:08:49;4.53;;;1.50;;
75427;SDS011;64008;55.612;37.698;2023-03-31T12:11:31;5.10;;;1.63;;
75427;SDS011;64008;55.612;37.698;2023-03-31T12:16:39;4.35;;;1.40;;
75427;SDS011;64008;55.612;37.698;2023-03-31T12:21:49;3.53;;;1.63;;
75427;SDS011;64008;55.612;37.698;2023-03-31T12:24:18;5.60;;;1.80;;
75427;SDS011;64008;55.612;37.698;2023-03-31T12:31:40;4.22;;;1.70;;
75427;SDS011;64008;55.612;37.698;2023-03-31T12:34:11;4.43;;;1.83;;
75427;SDS011;64008;55.612;37.698;2023-03-31T12:41:46;4.47;;;1.80;;
75427;SDS011;64008;55.612;37.698;2023-03-31T12:47:11;5.00;;;1.75;;
75427;SDS011;64008;55.612;37.698;2023-03-31T12:52:34;4.60;;;1.85;;
75427;SDS011;64008;55.612;37.698;2023-03-31T12:58:14;7.85;;;2.20;;
75427;SDS011;64008;55.612;37.698;2023-03-31T13:01:06;4.28;;;1.88;;
75427;SDS011;64008;55.612;37.698;2023-03-31T13:03:48;5.00;;;1.70;;
75427;SDS011;64008;55.612;37.698;2023-03-31T13:11:37;8.35;;;2.15;;
75427;SDS011;64008;55.612;37.698;2023-03-31T13:14:27;4.95;;;1.73;;
75427;SDS011;64008;55.612;37.698;2023-03-31T13:19:43;5.07;;;1.90;;
75427;SDS011;64008;55.612;37.698;2023-03-31T13:27:51;5.53;;;1.83;;
75427;SDS011;64008;55.612;37.698;2023-03-31T13:35:56;5.70;;;1.90;;
75427;SDS011;64008;55.612;37.698;2023-03-31T14:07:00;5.50;;;2.05;;
75427;SDS011;64008;55.612;37.698;2023-03-31T14:09:33;4.40;;;2.00;;
75427;SDS011;64008;55.612;37.698;2023-03-31T14:12:00;4.55;;;1.67;;
75427;SDS011;64008;55.612;37.698;2023-03-31T14:14:43;4.80;;;2.05;;
75427;SDS011;64008;55.612;37.698;2023-03-31T14:17:08;4.00;;;1.80;;
75427;SDS011;64008;55.612;37.698;2023-03-31T14:33:28;8.00;;;3.30;;
75427;SDS011;64008;55.612;37.698;2023-03-31T14:38:45;6.38;;;3.30;;
75427;SDS011;64008;55.612;37.698;2023-03-31T14:41:17;6.18;;;3.47;;
75427;SDS011;64008;55.612;37.698;2023-03-31T14:43:46;6.78;;;2.97;;
75427;SDS011;64008;55.612;37.698;2023-03-31T14:46:17;6.18;;;2.72;;
75427;SDS011;64008;55.612;37.698;2023-03-31T14:48:46;6.40;;;3.10;;
75427;SDS011;64008;55.612;37.698;2023-03-31T14:51:13;7.45;;;3.33;;
75427;SDS011;64008;55.612;37.698;2023-03-31T14:53:40;7.18;;;2.60;;
75427;SDS011;64008;55.612;37.698;2023-03-31T14:56:14;6.28;;;3.00;;
75427;SDS011;64008;55.612;37.698;2023-03-31T14:58:49;7.13;;;3.08;;
75427;SDS011;64008;55.612;37.698;2023-03-31T15:01:18;11.07;;;3.10;;
75427;SDS011;64008;55.612;37.698;2023-03-31T15:03:48;8.45;;;3.10;;
75427;SDS011;64008;55.612;37.698;2023-03-31T15:06:15;8.00;;;3.53;;
75427;SDS011;64008;55.612;37.698;2023-03-31T15:08:41;6.30;;;2.60;;
75427;SDS011;64008;55.612;37.698;2023-03-31T15:11:08;5.97;;;3.00;;
75427;SDS011;64008;55.612;37.698;2023-03-31T15:13:44;55.30;;;18.10;;
75427;SDS011;64008;55.612;37.698;2023-03-31T15:19:00;43.95;;;18.73;;
75427;SDS011;64008;55.612;37.698;2023-03-31T15:21:33;50.50;;;18.05;;
75427;SDS011;64008;55.612;37.698;2023-03-31T15:24:02;47.83;;;14.57;;
75427;SDS011;64008;55.612;37.698;2023-03-31T15:26:32;42.40;;;13.65;;
75427;SDS011;64008;55.612;37.698;2023-03-31T15:29:06;35.15;;;12.27;;
75427;SDS011;64008;55.612;37.698;2023-03-31T15:33:59;26.80;;;9.50;;
75427;SDS011;64008;55.612;37.698;2023-03-31T15:36:35;25.00;;;9.13;;
75427;SDS011;64008;55.612;37.698;2023-03-31T15:41:29;22.27;;;7.85;;
75427;SDS011;64008;55.612;37.698;2023-03-31T15:44:03;18.27;;;7.63;;
75427;SDS011;64008;55.612;37.698;2023-03-31T15:49:03;18.83;;;6.80;;
75427;SDS011;64008;55.612;37.698;2023-03-31T15:51:32;22.27;;;6.60;;
75427;SDS011;64008;55.612;37.698;2023-03-31T15:54:00;17.70;;;6.55;;
75427;SDS011;64008;55.612;37.698;2023-03-31T15:56:30;17.73;;;6.43;;
75427;SDS011;64008;55.612;37.698;2023-03-31T15:59:20;15.98;;;5.47;;
75427;SDS011;64008;55.612;37.698;2023-03-31T16:01:47;14.48;;;5.40;;
75427;SDS011;64008;55.612;37.698;2023-03-31T16:04:14;12.63;;;5.03;;
75427;SDS011;64008;55.612;37.698;2023-03-31T16:06:44;13.38;;;5.47;;
75427;SDS011;64008;55.612;37.698;2023-03-31T16:09:23;13.48;;;5.00;;
75427;SDS011;64008;55.612;37.698;2023-03-31T16:11:53;14.57;;;4.47;;
75427;SDS011;64008;55.612;37.698;2023-03-31T16:17:07;13.45;;;5.07;;
75427;SDS011;64008;55.612;37.698;2023-03-31T16:19:43;11.48;;;4.90;;
75427;SDS011;64008;55.612;37.698;2023-03-31T16:22:13;12.15;;;4.38;;
75427;SDS011;64008;55.612;37.698;2023-03-31T16:24:44;12.30;;;4.38;;
75427;SDS011;64008;55.612;37.698;2023-03-31T16:27:10;11.70;;;4.55;;
75427;SDS011;64008;55.612;37.698;2023-03-31T16:29:36;10.52;;;4.50;;
75427;SDS011;64008;55.612;37.698;2023-03-31T16:34:57;11.40;;;3.60;;
75427;SDS011;64008;55.612;37.698;2023-03-31T16:37:24;10.27;;;3.90;;
75427;SDS011;64008;55.612;37.698;2023-03-31T16:39:50;8.68;;;4.13;;
75427;SDS011;64008;55.612;37.698;2023-03-31T16:42:16;9.77;;;3.53;;
75427;SDS011;64008;55.612;37.698;2023-03-31T16:44:42;9.07;;;4.18;;
75427;SDS011;64008;55.612;37.698;2023-03-31T16:47:09;9.07;;;3.85;;
75427;SDS011;64008;55.612;37.698;2023-03-31T16:49:35;9.90;;;3.60;;
75427;SDS011;64008;55.612;37.698;2023-03-31T16:52:01;9.85;;;4.00;;
75427;SDS011;64008;55.612;37.698;2023-03-31T16:54:26;7.47;;;3.10;;
75427;SDS011;64008;55.612;37.698;2023-03-31T16:56:52;8.90;;;4.05;;
75427;SDS011;64008;55.612;37.698;2023-03-31T16:59:17;11.02;;;4.00;;
75427;SDS011;64008;55.612;37.698;2023-03-31T17:01:43;9.32;;;3.90;;
75427;SDS011;64008;55.612;37.698;2023-03-31T17:04:09;10.07;;;3.92;;
75427;SDS011;64008;55.612;37.698;2023-03-31T17:06:35;10.65;;;3.53;;
75427;SDS011;64008;55.612;37.698;2023-03-31T17:09:00;9.23;;;3.75;;
75427;SDS011;64008;55.612;37.698;2023-03-31T17:11:26;9.05;;;3.70;;
75427;SDS011;64008;55.612;37.698;2023-03-31T17:13:52;8.10;;;3.50;;
75427;SDS011;64008;55.612;37.698;2023-03-31T17:16:19;9.55;;;4.40;;
75427;SDS011;64008;55.612;37.698;2023-03-31T17:18:45;6.70;;;3.20;;
75427;SDS011;64008;55.612;37.698;2023-03-31T17:21:12;7.20;;;3.55;;
75427;SDS011;64008;55.612;37.698;2023-03-31T17:23:39;6.75;;;3.30;;
75427;SDS011;64008;55.612;37.698;2023-03-31T17:26:06;7.05;;;3.50;;
75427;SDS011;64008;55.612;37.698;2023-03-31T17:28:33;6.20;;;3.10;;
75427;SDS011;64008;55.612;37.698;2023-03-31T17:30:59;7.43;;;3.33;;
75427;SDS011;64008;55.612;37.698;2023-03-31T17:33:26;6.88;;;3.35;;
75427;SDS011;64008;55.612;37.698;2023-03-31T17:35:58;7.25;;;3.42;;
75427;SDS011;64008;55.612;37.698;2023-03-31T17:38:24;7.47;;;3.17;;
75427;SDS011;64008;55.612;37.698;2023-03-31T17:40:50;8.27;;;3.38;;
75427;SDS011;64008;55.612;37.698;2023-03-31T17:43:15;7.15;;;3.25;;
75427;SDS011;64008;55.612;37.698;2023-03-31T17:45:41;8.85;;;3.70;;
75427;SDS011;64008;55.612;37.698;2023-03-31T17:48:07;8.73;;;3.53;;
75427;SDS011;64008;55.612;37.698;2023-03-31T17:50:33;7.72;;;3.55;;
75427;SDS011;64008;55.612;37.698;2023-03-31T17:53:00;7.70;;;3.38;;
75427;SDS011;64008;55.612;37.698;2023-03-31T17:55:26;7.18;;;3.35;;
75427;SDS011;64008;55.612;37.698;2023-03-31T17:57:51;7.40;;;3.72;;
75427;SDS011;64008;55.612;37.698;2023-03-31T18:00:17;8.50;;;3.38;;
75427;SDS011;64008;55.612;37.698;2023-03-31T18:02:43;7.95;;;3.50;;
75427;SDS011;64008;55.612;37.698;2023-03-31T18:05:09;8.48;;;3.88;;
75427;SDS011;64008;55.612;37.698;2023-03-31T18:07:35;6.57;;;3.55;;
75427;SDS011;64008;55.612;37.698;2023-03-31T18:12:29;7.38;;;3.40;;